sensor_id;sensor_type;location;lat;lon;timestamp;pressure;altitude;pressure_sealevel;temperature;humidity
16595;BME280;8410;52.532;13.336;2022-09-30T00:01:08;100392.63;;;11.83;79.07
16595;BME280;8410;52.532;13.336;2022-09-30T00:03:35;100398.63;;;11.74;79.21
16595;BME280;8410;52.532;13.336;2022-09-30T00:06:05;100389.16;;;11.68;79.96
16595;BME280;8410;52.532;13.336;2022-09-30T00:08:36;100396.03;;;11.76;80.42
16595;BME280;8410;52.532;13.336;2022-09-30T00:11:06;100396.91;;;11.84;78.74
16595;BME280;8410;52.532;13.336;2022-09-30T00:13:36;100394.34;;;11.84;79.13
16595;BME280;8410;52.532;13.336;2022-09-30T00:16:07;100389.16;;;11.70;79.68
16595;BME280;8410;52.532;13.336;2022-09-30T00:18:35;100403.78;;;11.69;79.98
16595;BME280;8410;52.532;13.336;2022-09-30T00:21:03;100405.50;;;11.63;79.96
16595;BME280;8410;52.532;13.336;2022-09-30T00:23:31;100405.47;;;11.67;79.82
16595;BME280;8410;52.532;13.336;2022-09-30T00:26:02;100407.25;;;11.82;79.67
16595;BME280;8410;52.532;13.336;2022-09-30T00:28:30;100402.06;;;11.81;79.80
16595;BME280;8410;52.532;13.336;2022-09-30T00:30:58;100403.78;;;11.77;79.86
16595;BME280;8410;52.532;13.336;2022-09-30T00:33:26;100408.91;;;11.62;79.58
16595;BME280;8410;52.532;13.336;2022-09-30T00:35:54;100409.75;;;11.53;80.74
16595;BME280;8410;52.532;13.336;2022-09-30T00:38:21;100403.72;;;11.53;80.87
16595;BME280;8410;52.532;13.336;2022-09-30T00:40:49;100408.88;;;11.48;79.95
16595;BME280;8410;52.532;13.336;2022-09-30T00:43:20;100409.75;;;11.50;80.32
16595;BME280;8410;52.532;13.336;2022-09-30T00:46:04;100404.63;;;11.65;79.56
16595;BME280;8410;52.532;13.336;2022-09-30T00:48:34;100407.13;;;11.42;79.52
16595;BME280;8410;52.532;13.336;2022-09-30T00:51:04;100409.72;;;11.47;80.63
16595;BME280;8410;52.532;13.336;2022-09-30T00:53:35;100408.03;;;11.52;80.47
16595;BME280;8410;52.532;13.336;2022-09-30T00:56:07;100413.16;;;11.49;80.10
16595;BME280;8410;52.532;13.336;2022-09-30T00:58:39;100409.75;;;11.50;80.10
16595;BME280;8410;52.532;13.336;2022-09-30T01:01:09;100410.56;;;11.49;80.71
16595;BME280;8410;52.532;13.336;2022-09-30T01:03:38;100409.69;;;11.41;80.69
16595;BME280;8410;52.532;13.336;2022-09-30T01:06:07;100411.38;;;11.26;81.16
16595;BME280;8410;52.532;13.336;2022-09-30T01:08:37;100417.44;;;11.44;81.25
16595;BME280;8410;52.532;13.336;2022-09-30T01:11:05;100414.81;;;11.35;80.47
16595;BME280;8410;52.532;13.336;2022-09-30T01:13:35;100416.50;;;11.23;80.23
16595;BME280;8410;52.532;13.336;2022-09-30T01:16:17;100412.22;;;11.27;81.03
16595;BME280;8410;52.532;13.336;2022-09-30T01:18:57;100417.38;;;11.30;81.44
16595;BME280;8410;52.532;13.336;2022-09-30T01:21:55;100417.41;;;11.32;80.69
16595;BME280;8410;52.532;13.336;2022-09-30T01:24:38;100431.19;;;11.40;80.69
16595;BME280;8410;52.532;13.336;2022-09-30T01:27:15;100423.44;;;11.40;81.34
16595;BME280;8410;52.532;13.336;2022-09-30T01:30:09;100430.31;;;11.41;80.46
16595;BME280;8410;52.532;13.336;2022-09-30T01:32:48;100435.44;;;11.35;81.29
16595;BME280;8410;52.532;13.336;2022-09-30T01:35:29;100421.69;;;11.30;80.95
16595;BME280;8410;52.532;13.336;2022-09-30T01:38:08;100417.41;;;11.35;81.45
16595;BME280;8410;52.532;13.336;2022-09-30T01:40:43;100414.75;;;11.22;80.86
16595;BME280;8410;52.532;13.336;2022-09-30T01:43:19;100418.19;;;11.18;81.96
16595;BME280;8410;52.532;13.336;2022-09-30T01:45:55;100418.22;;;11.24;81.95
16595;BME280;8410;52.532;13.336;2022-09-30T01:48:32;100416.53;;;11.33;81.66
16595;BME280;8410;52.532;13.336;2022-09-30T01:51:04;100425.00;;;11.07;82.31
16595;BME280;8410;52.532;13.336;2022-09-30T01:53:38;100425.94;;;11.21;82.74
16595;BME280;8410;52.532;13.336;2022-09-30T01:56:12;100426.84;;;11.30;81.04
16595;BME280;8410;52.532;13.336;2022-09-30T01:58:49;100434.50;;;11.16;81.39
16595;BME280;8410;52.532;13.336;2022-09-30T02:01:24;100425.91;;;11.17;82.16
16595;BME280;8410;52.532;13.336;2022-09-30T02:03:55;100419.03;;;11.16;81.78
16595;BME280;8410;52.532;13.336;2022-09-30T02:06:27;100418.19;;;11.18;82.23
16595;BME280;8410;52.532;13.336;2022-09-30T02:09:00;100409.66;;;11.25;81.73
16595;BME280;8410;52.532;13.336;2022-09-30T02:11:33;100416.50;;;11.25;81.00
16595;BME280;8410;52.532;13.336;2022-09-30T02:14:03;100429.38;;;11.20;81.53
16595;BME280;8410;52.532;13.336;2022-09-30T02:16:36;100435.34;;;11.13;81.33
16595;BME280;8410;52.532;13.336;2022-09-30T02:19:10;100435.31;;;11.04;81.98
16595;BME280;8410;52.532;13.336;2022-09-30T02:21:43;100434.47;;;11.14;82.49
16595;BME280;8410;52.532;13.336;2022-09-30T02:24:14;100427.59;;;11.10;81.95
16595;BME280;8410;52.532;13.336;2022-09-30T02:26:45;100428.50;;;11.18;81.71
16595;BME280;8410;52.532;13.336;2022-09-30T02:29:17;100439.72;;;11.26;80.71
16595;BME280;8410;52.532;13.336;2022-09-30T02:31:49;100431.97;;;11.23;80.82
16595;BME280;8410;52.532;13.336;2022-09-30T02:34:23;100437.88;;;11.06;81.31
16595;BME280;8410;52.532;13.336;2022-09-30T02:36:58;100431.78;;;10.96;82.39
16595;BME280;8410;52.532;13.336;2022-09-30T02:39:31;100435.34;;;11.16;80.59
16595;BME280;8410;52.532;13.336;2022-09-30T02:42:10;100430.09;;;10.98;81.42
16595;BME280;8410;52.532;13.336;2022-09-30T02:44:38;100438.69;;;10.94;82.02
16595;BME280;8410;52.532;13.336;2022-09-30T02:47:11;100440.34;;;10.89;81.20
16595;BME280;8410;52.532;13.336;2022-09-30T02:49:46;100445.56;;;11.01;81.55
16595;BME280;8410;52.532;13.336;2022-09-30T02:52:23;100448.91;;;10.88;81.77
16595;BME280;8410;52.532;13.336;2022-09-30T02:55:01;100450.66;;;10.86;82.76
16595;BME280;8410;52.532;13.336;2022-09-30T02:57:36;100450.69;;;10.92;81.97
16595;BME280;8410;52.532;13.336;2022-09-30T03:00:09;100450.72;;;10.98;81.56
16595;BME280;8410;52.532;13.336;2022-09-30T03:02:38;100457.47;;;10.80;82.92
16595;BME280;8410;52.532;13.336;2022-09-30T03:05:08;100455.91;;;11.04;81.37
16595;BME280;8410;52.532;13.336;2022-09-30T03:07:37;100459.34;;;11.06;81.14
16595;BME280;8410;52.532;13.336;2022-09-30T03:10:11;100458.44;;;11.01;81.76
16595;BME280;8410;52.532;13.336;2022-09-30T03:12:47;100468.66;;;10.82;81.17
16595;BME280;8410;52.532;13.336;2022-09-30T03:15:30;100462.63;;;10.80;82.60
16595;BME280;8410;52.532;13.336;2022-09-30T03:18:13;100460.06;;;10.84;81.56
16595;BME280;8410;52.532;13.336;2022-09-30T03:21:00;100465.22;;;10.84;81.89
16595;BME280;8410;52.532;13.336;2022-09-30T03:23:44;100458.41;;;10.92;82.13
16595;BME280;8410;52.532;13.336;2022-09-30T03:26:25;100459.19;;;10.85;82.22
16595;BME280;8410;52.532;13.336;2022-09-30T03:29:06;100461.72;;;10.75;82.05
16595;BME280;8410;52.532;13.336;2022-09-30T03:31:42;100464.28;;;10.69;82.70
16595;BME280;8410;52.532;13.336;2022-09-30T03:34:18;100472.91;;;10.77;82.34
16595;BME280;8410;52.532;13.336;2022-09-30T03:36:57;100466.97;;;10.92;81.77
16595;BME280;8410;52.532;13.336;2022-09-30T03:39:38;100471.31;;;10.98;81.78
16595;BME280;8410;52.532;13.336;2022-09-30T03:42:13;100474.66;;;10.88;81.72
16595;BME280;8410;52.532;13.336;2022-09-30T03:44:53;100471.31;;;10.98;81.35
16595;BME280;8410;52.532;13.336;2022-09-30T03:47:24;100470.41;;;10.88;82.03
16595;BME280;8410;52.532;13.336;2022-09-30T03:50:00;100481.59;;;10.92;81.14
16595;BME280;8410;52.532;13.336;2022-09-30T03:52:31;100494.31;;;10.73;83.36
16595;BME280;8410;52.532;13.336;2022-09-30T03:55:02;100492.72;;;10.89;81.85
16595;BME280;8410;52.532;13.336;2022-09-30T03:57:30;100489.22;;;10.79;82.29
16595;BME280;8410;52.532;13.336;2022-09-30T03:59:58;100492.56;;;10.68;82.53
16595;BME280;8410;52.532;13.336;2022-09-30T04:02:26;100489.09;;;10.66;83.75
16595;BME280;8410;52.532;13.336;2022-09-30T04:04:54;100491.72;;;10.67;83.17
16595;BME280;8410;52.532;13.336;2022-09-30T04:07:21;100488.34;;;10.77;82.53
16595;BME280;8410;52.532;13.336;2022-09-30T04:09:50;100500.34;;;10.75;81.66
16595;BME280;8410;52.532;13.336;2022-09-30T04:12:18;100495.31;;;10.91;81.52
16595;BME280;8410;52.532;13.336;2022-09-30T04:14:45;100501.31;;;10.88;81.87
16595;BME280;8410;52.532;13.336;2022-09-30T04:17:13;100502.16;;;10.89;82.61
16595;BME280;8410;52.532;13.336;2022-09-30T04:19:40;100506.47;;;10.88;81.73
16595;BME280;8410;52.532;13.336;2022-09-30T04:22:08;100505.56;;;10.85;81.42
16595;BME280;8410;52.532;13.336;2022-09-30T04:24:36;100505.56;;;10.88;81.86
16595;BME280;8410;52.532;13.336;2022-09-30T04:27:05;100515.78;;;10.72;81.78
16595;BME280;8410;52.532;13.336;2022-09-30T04:29:33;100519.06;;;10.56;81.64
16595;BME280;8410;52.532;13.336;2022-09-30T04:32:00;100520.94;;;10.75;82.60
16595;BME280;8410;52.532;13.336;2022-09-30T04:34:28;100515.63;;;10.57;82.34
16595;BME280;8410;52.532;13.336;2022-09-30T04:36:55;100525.94;;;10.57;82.19
16595;BME280;8410;52.532;13.336;2022-09-30T04:39:23;100526.66;;;10.44;83.46
16595;BME280;8410;52.532;13.336;2022-09-30T04:41:50;100525.00;;;10.50;82.85
16595;BME280;8410;52.532;13.336;2022-09-30T04:44:20;100533.63;;;10.55;83.20
16595;BME280;8410;52.532;13.336;2022-09-30T04:46:48;100527.75;;;10.69;81.98
16595;BME280;8410;52.532;13.336;2022-09-30T04:49:17;100539.81;;;10.74;82.31
16595;BME280;8410;52.532;13.336;2022-09-30T04:51:44;100541.56;;;10.78;82.31
16595;BME280;8410;52.532;13.336;2022-09-30T04:54:12;100544.06;;;10.68;82.79
16595;BME280;8410;52.532;13.336;2022-09-30T04:56:40;100546.78;;;10.88;81.61
16595;BME280;8410;52.532;13.336;2022-09-30T04:59:07;100553.84;;;11.13;80.82
16595;BME280;8410;52.532;13.336;2022-09-30T05:01:36;100552.78;;;10.84;81.76
16595;BME280;8410;52.532;13.336;2022-09-30T05:04:05;100558.81;;;10.86;80.67
16595;BME280;8410;52.532;13.336;2022-09-30T05:06:33;100563.94;;;10.82;81.92
16595;BME280;8410;52.532;13.336;2022-09-30T05:09:01;100561.41;;;10.92;80.98
16595;BME280;8410;52.532;13.336;2022-09-30T05:11:29;100563.78;;;10.67;81.40
16595;BME280;8410;52.532;13.336;2022-09-30T05:13:57;100568.97;;;10.70;81.32
16595;BME280;8410;52.532;13.336;2022-09-30T05:16:25;100563.88;;;10.79;81.73
16595;BME280;8410;52.532;13.336;2022-09-30T05:18:54;100564.66;;;10.71;81.89
16595;BME280;8410;52.532;13.336;2022-09-30T05:21:22;100573.28;;;10.74;81.61
16595;BME280;8410;52.532;13.336;2022-09-30T05:23:49;100570.66;;;10.68;82.64
16595;BME280;8410;52.532;13.336;2022-09-30T05:26:16;100573.31;;;10.76;80.95
16595;BME280;8410;52.532;13.336;2022-09-30T05:28:44;100573.38;;;10.84;81.43
16595;BME280;8410;52.532;13.336;2022-09-30T05:31:11;100581.09;;;10.84;80.50
16595;BME280;8410;52.532;13.336;2022-09-30T05:33:39;100580.00;;;10.60;80.94
16595;BME280;8410;52.532;13.336;2022-09-30T05:36:11;100592.13;;;10.70;82.26
16595;BME280;8410;52.532;13.336;2022-09-30T05:38:40;100588.66;;;10.65;82.36
16595;BME280;8410;52.532;13.336;2022-09-30T05:41:08;100585.41;;;10.88;82.23
16595;BME280;8410;52.532;13.336;2022-09-30T05:43:38;100587.22;;;10.96;80.66
16595;BME280;8410;52.532;13.336;2022-09-30T05:46:05;100577.72;;;10.91;81.53
16595;BME280;8410;52.532;13.336;2022-09-30T05:48:33;100583.81;;;10.99;80.67
16595;BME280;8410;52.532;13.336;2022-09-30T05:51:01;100590.69;;;11.01;80.55
16595;BME280;8410;52.532;13.336;2022-09-30T05:53:31;100599.22;;;10.96;82.17
16595;BME280;8410;52.532;13.336;2022-09-30T05:55:58;100606.25;;;11.14;81.19
16595;BME280;8410;52.532;13.336;2022-09-30T05:58:26;100598.56;;;11.21;81.21
16595;BME280;8410;52.532;13.336;2022-09-30T06:00:54;100602.09;;;11.34;79.72
16595;BME280;8410;52.532;13.336;2022-09-30T06:03:22;100605.53;;;11.32;80.36
16595;BME280;8410;52.532;13.336;2022-09-30T06:05:54;100610.69;;;11.32;81.21
16595;BME280;8410;52.532;13.336;2022-09-30T06:08:23;100616.78;;;11.49;80.13
16595;BME280;8410;52.532;13.336;2022-09-30T06:10:52;100609.97;;;11.56;80.16
16595;BME280;8410;52.532;13.336;2022-09-30T06:13:19;100618.63;;;11.64;79.77
16595;BME280;8410;52.532;13.336;2022-09-30T06:15:54;100619.44;;;11.55;79.35
16595;BME280;8410;52.532;13.336;2022-09-30T06:18:22;100617.69;;;11.54;80.27
16595;BME280;8410;52.532;13.336;2022-09-30T06:20:50;100622.94;;;11.63;78.92
16595;BME280;8410;52.532;13.336;2022-09-30T06:23:18;100623.84;;;11.72;78.83
16595;BME280;8410;52.532;13.336;2022-09-30T06:25:49;100614.31;;;11.64;79.80
16595;BME280;8410;52.532;13.336;2022-09-30T06:28:17;100619.50;;;11.66;79.06
16595;BME280;8410;52.532;13.336;2022-09-30T06:30:46;100614.50;;;11.92;78.34
16595;BME280;8410;52.532;13.336;2022-09-30T06:33:13;100623.13;;;11.97;79.06
16595;BME280;8410;52.532;13.336;2022-09-30T06:35:41;100629.19;;;11.98;78.73
16595;BME280;8410;52.532;13.336;2022-09-30T06:38:09;100631.75;;;12.02;78.07
16595;BME280;8410;52.532;13.336;2022-09-30T06:40:37;100636.13;;;12.11;77.62
16595;BME280;8410;52.532;13.336;2022-09-30T06:43:04;100636.06;;;12.05;78.31
16595;BME280;8410;52.532;13.336;2022-09-30T06:45:34;100639.50;;;12.04;79.60
16595;BME280;8410;52.532;13.336;2022-09-30T06:48:04;100649.00;;;12.11;78.81
16595;BME280;8410;52.532;13.336;2022-09-30T06:50:32;100637.84;;;12.21;79.18
16595;BME280;8410;52.532;13.336;2022-09-30T06:53:02;100644.75;;;12.21;78.56
16595;BME280;8410;52.532;13.336;2022-09-30T06:55:31;100647.38;;;12.36;77.60
16595;BME280;8410;52.532;13.336;2022-09-30T06:57:59;100661.19;;;12.41;78.23
16595;BME280;8410;52.532;13.336;2022-09-30T07:00:26;100661.22;;;12.52;77.73
16595;BME280;8410;52.532;13.336;2022-09-30T07:02:56;100653.50;;;12.60;81.26
16595;BME280;8410;52.532;13.336;2022-09-30T07:05:24;100655.97;;;12.29;78.43
16595;BME280;8410;52.532;13.336;2022-09-30T07:07:52;100649.09;;;12.34;76.85
16595;BME280;8410;52.532;13.336;2022-09-30T07:10:20;100664.44;;;12.00;80.17
16595;BME280;8410;52.532;13.336;2022-09-30T07:12:48;100669.19;;;11.45;82.90
16595;BME280;8410;52.532;13.336;2022-09-30T07:15:17;100659.38;;;12.20;84.66
16595;BME280;8410;52.532;13.336;2022-09-30T07:17:49;100652.63;;;12.67;79.25
16595;BME280;8410;52.532;13.336;2022-09-30T07:20:18;100650.97;;;12.92;77.77
16595;BME280;8410;52.532;13.336;2022-09-30T07:22:45;100657.78;;;12.64;77.16
16595;BME280;8410;52.532;13.336;2022-09-30T07:25:13;100663.91;;;12.86;77.62
16595;BME280;8410;52.532;13.336;2022-09-30T07:27:41;100659.59;;;13.08;76.74
16595;BME280;8410;52.532;13.336;2022-09-30T07:30:10;100661.28;;;12.87;76.25
16595;BME280;8410;52.532;13.336;2022-09-30T07:32:49;100661.34;;;13.21;76.28
16595;BME280;8410;52.532;13.336;2022-09-30T07:35:18;100656.16;;;13.21;75.44
16595;BME280;8410;52.532;13.336;2022-09-30T07:37:46;100657.88;;;13.16;76.36
16595;BME280;8410;52.532;13.336;2022-09-30T07:40:13;100673.44;;;13.31;76.60
16595;BME280;8410;52.532;13.336;2022-09-30T07:42:41;100672.59;;;13.37;75.84
16595;BME280;8410;52.532;13.336;2022-09-30T07:45:11;100670.00;;;13.48;75.07
16595;BME280;8410;52.532;13.336;2022-09-30T07:47:41;100674.28;;;13.47;75.88
16595;BME280;8410;52.532;13.336;2022-09-30T07:50:08;100662.22;;;13.57;75.59
16595;BME280;8410;52.532;13.336;2022-09-30T07:52:37;100667.38;;;13.77;76.05
16595;BME280;8410;52.532;13.336;2022-09-30T07:55:05;100666.50;;;13.67;75.60
16595;BME280;8410;52.532;13.336;2022-09-30T07:57:32;100667.38;;;13.72;76.01
16595;BME280;8410;52.532;13.336;2022-09-30T08:00:00;100671.66;;;13.81;76.00
16595;BME280;8410;52.532;13.336;2022-09-30T08:02:48;100675.94;;;14.03;75.48
16595;BME280;8410;52.532;13.336;2022-09-30T08:05:15;100679.38;;;13.95;74.97
16595;BME280;8410;52.532;13.336;2022-09-30T08:07:44;100682.81;;;14.06;74.74
16595;BME280;8410;52.532;13.336;2022-09-30T08:10:12;100676.75;;;14.10;75.60
16595;BME280;8410;52.532;13.336;2022-09-30T08:12:39;100683.69;;;14.03;76.10
16595;BME280;8410;52.532;13.336;2022-09-30T08:15:08;100675.03;;;14.15;75.59
16595;BME280;8410;52.532;13.336;2022-09-30T08:17:35;100688.78;;;14.26;75.67
16595;BME280;8410;52.532;13.336;2022-09-30T08:20:03;100687.03;;;14.31;75.04
16595;BME280;8410;52.532;13.336;2022-09-30T08:22:38;100688.72;;;14.42;74.46
16595;BME280;8410;52.532;13.336;2022-09-30T08:25:07;100687.00;;;14.53;74.07
16595;BME280;8410;52.532;13.336;2022-09-30T08:27:34;100685.25;;;14.52;73.53
16595;BME280;8410;52.532;13.336;2022-09-30T08:30:02;100690.41;;;14.61;73.95
16595;BME280;8410;52.532;13.336;2022-09-30T08:32:31;100688.69;;;14.48;73.63
16595;BME280;8410;52.532;13.336;2022-09-30T08:34:58;100692.13;;;14.65;73.36
16595;BME280;8410;52.532;13.336;2022-09-30T08:37:26;100692.16;;;14.56;73.21
16595;BME280;8410;52.532;13.336;2022-09-30T08:39:53;100698.03;;;14.86;72.86
16595;BME280;8410;52.532;13.336;2022-09-30T08:42:37;100698.88;;;14.91;72.39
16595;BME280;8410;52.532;13.336;2022-09-30T08:45:27;100705.00;;;14.79;72.98
16595;BME280;8410;52.532;13.336;2022-09-30T08:48:05;100704.84;;;15.02;72.35
16595;BME280;8410;52.532;13.336;2022-09-30T08:50:43;100703.09;;;15.04;72.51
16595;BME280;8410;52.532;13.336;2022-09-30T08:53:20;100712.38;;;15.39;71.38
16595;BME280;8410;52.532;13.336;2022-09-30T08:55:50;100715.94;;;15.26;71.31
16595;BME280;8410;52.532;13.336;2022-09-30T08:58:25;100720.72;;;14.28;73.76
16595;BME280;8410;52.532;13.336;2022-09-30T09:00:56;100717.94;;;14.77;73.92
16595;BME280;8410;52.532;13.336;2022-09-30T09:03:27;100720.34;;;15.14;71.72
16595;BME280;8410;52.532;13.336;2022-09-30T09:06:05;100712.44;;;15.33;71.33
16595;BME280;8410;52.532;13.336;2022-09-30T09:08:48;100715.22;;;15.04;72.28
16595;BME280;8410;52.532;13.336;2022-09-30T09:11:24;100719.19;;;15.52;70.79
16595;BME280;8410;52.532;13.336;2022-09-30T09:14:04;100711.38;;;15.57;69.86
16595;BME280;8410;52.532;13.336;2022-09-30T09:16:35;100709.44;;;15.82;70.12
16595;BME280;8410;52.532;13.336;2022-09-30T09:19:08;100717.31;;;15.68;70.58
16595;BME280;8410;52.532;13.336;2022-09-30T09:21:44;100712.31;;;15.48;70.73
16595;BME280;8410;52.532;13.336;2022-09-30T09:24:17;100707.66;;;15.87;69.27
16595;BME280;8410;52.532;13.336;2022-09-30T09:26:46;100712.84;;;15.87;69.81
16595;BME280;8410;52.532;13.336;2022-09-30T09:29:24;100713.88;;;15.68;69.61
16595;BME280;8410;52.532;13.336;2022-09-30T09:31:54;100720.13;;;15.43;69.19
16595;BME280;8410;52.532;13.336;2022-09-30T09:34:23;100710.69;;;15.35;70.54
16595;BME280;8410;52.532;13.336;2022-09-30T09:37:01;100713.72;;;15.86;69.20
16595;BME280;8410;52.532;13.336;2022-09-30T09:39:55;100713.75;;;15.83;69.17
16595;BME280;8410;52.532;13.336;2022-09-30T09:42:44;100710.13;;;15.99;69.05
16595;BME280;8410;52.532;13.336;2022-09-30T09:45:24;100701.22;;;16.22;67.92
16595;BME280;8410;52.532;13.336;2022-09-30T09:47:54;100703.25;;;15.95;68.69
16595;BME280;8410;52.532;13.336;2022-09-30T09:50:27;100705.19;;;15.75;69.01
16595;BME280;8410;52.532;13.336;2022-09-30T09:53:12;100697.88;;;16.10;67.38
16595;BME280;8410;52.532;13.336;2022-09-30T09:55:46;100702.84;;;16.32;66.71
16595;BME280;8410;52.532;13.336;2022-09-30T09:58:14;100700.72;;;15.91;66.74
16595;BME280;8410;52.532;13.336;2022-09-30T10:00:43;100698.81;;;16.03;67.24
16595;BME280;8410;52.532;13.336;2022-09-30T10:03:35;100691.97;;;15.99;67.84
16595;BME280;8410;52.532;13.336;2022-09-30T10:06:05;100691.28;;;16.56;66.03
16595;BME280;8410;52.532;13.336;2022-09-30T10:08:36;100696.16;;;16.13;65.41
16595;BME280;8410;52.532;13.336;2022-09-30T10:11:06;100692.19;;;16.53;65.99
16595;BME280;8410;52.532;13.336;2022-09-30T10:13:41;100689.13;;;16.21;65.87
16595;BME280;8410;52.532;13.336;2022-09-30T10:16:25;100687.50;;;16.10;66.39
16595;BME280;8410;52.532;13.336;2022-09-30T10:18:53;100687.28;;;16.29;66.67
16595;BME280;8410;52.532;13.336;2022-09-30T10:21:23;100680.97;;;16.50;65.07
16595;BME280;8410;52.532;13.336;2022-09-30T10:23:50;100685.59;;;16.28;65.39
16595;BME280;8410;52.532;13.336;2022-09-30T10:26:19;100676.63;;;16.50;65.02
16595;BME280;8410;52.532;13.336;2022-09-30T10:28:48;100685.41;;;16.40;65.13
16595;BME280;8410;52.532;13.336;2022-09-30T10:31:22;100681.88;;;16.47;65.32
16595;BME280;8410;52.532;13.336;2022-09-30T10:33:55;100678.34;;;16.51;64.57
16595;BME280;8410;52.532;13.336;2022-09-30T10:36:30;100674.44;;;16.86;64.28
16595;BME280;8410;52.532;13.336;2022-09-30T10:39:00;100675.97;;;17.00;64.16
16595;BME280;8410;52.532;13.336;2022-09-30T10:41:33;100678.28;;;16.58;64.72
16595;BME280;8410;52.532;13.336;2022-09-30T10:44:05;100674.47;;;16.83;64.29
16595;BME280;8410;52.532;13.336;2022-09-30T10:46:37;100672.34;;;17.11;63.56
16595;BME280;8410;52.532;13.336;2022-09-30T10:49:08;100669.38;;;16.74;64.42
16595;BME280;8410;52.532;13.336;2022-09-30T10:51:37;100670.69;;;16.41;63.30
16595;BME280;8410;52.532;13.336;2022-09-30T10:54:05;100680.69;;;16.70;63.65
16595;BME280;8410;52.532;13.336;2022-09-30T10:56:39;100675.75;;;17.15;62.66
16595;BME280;8410;52.532;13.336;2022-09-30T10:59:21;100661.06;;;17.11;62.36
16595;BME280;8410;52.532;13.336;2022-09-30T11:01:55;100661.53;;;16.82;63.06
16595;BME280;8410;52.532;13.336;2022-09-30T11:04:35;100669.53;;;16.62;64.32
16595;BME280;8410;52.532;13.336;2022-09-30T11:07:12;100667.56;;;16.82;62.38
16595;BME280;8410;52.532;13.336;2022-09-30T11:09:46;100667.53;;;16.85;62.63
16595;BME280;8410;52.532;13.336;2022-09-30T11:12:20;100667.63;;;16.79;62.42
16595;BME280;8410;52.532;13.336;2022-09-30T11:14:56;100657.81;;;16.96;62.40
16595;BME280;8410;52.532;13.336;2022-09-30T11:17:33;100656.69;;;17.13;62.22
16595;BME280;8410;52.532;13.336;2022-09-30T11:20:13;100653.00;;;17.26;60.84
16595;BME280;8410;52.532;13.336;2022-09-30T11:22:50;100645.53;;;17.06;60.97
16595;BME280;8410;52.532;13.336;2022-09-30T11:25:25;100648.41;;;16.89;62.26
16595;BME280;8410;52.532;13.336;2022-09-30T11:28:04;100642.31;;;16.90;62.17
16595;BME280;8410;52.532;13.336;2022-09-30T11:30:39;100640.97;;;17.20;60.33
16595;BME280;8410;52.532;13.336;2022-09-30T11:33:23;100651.41;;;17.19;61.94
16595;BME280;8410;52.532;13.336;2022-09-30T11:35:54;100642.34;;;17.41;60.78
16595;BME280;8410;52.532;13.336;2022-09-30T11:38:46;100650.91;;;16.94;60.82
16595;BME280;8410;52.532;13.336;2022-09-30T11:41:22;100643.44;;;17.76;59.17
16595;BME280;8410;52.532;13.336;2022-09-30T11:44:03;100642.22;;;17.48;60.29
16595;BME280;8410;52.532;13.336;2022-09-30T11:46:43;100647.50;;;17.45;60.52
16595;BME280;8410;52.532;13.336;2022-09-30T11:49:27;100658.63;;;17.54;61.34
16595;BME280;8410;52.532;13.336;2022-09-30T11:52:06;100652.56;;;17.51;59.74
16595;BME280;8410;52.532;13.336;2022-09-30T11:54:50;100649.84;;;17.58;59.84
16595;BME280;8410;52.532;13.336;2022-09-30T11:57:26;100658.66;;;16.98;60.53
16595;BME280;8410;52.532;13.336;2022-09-30T12:00:00;100640.63;;;17.40;59.50
16595;BME280;8410;52.532;13.336;2022-09-30T12:02:34;100651.66;;;17.55;59.02
16595;BME280;8410;52.532;13.336;2022-09-30T12:05:08;100646.38;;;17.58;59.33
16595;BME280;8410;52.532;13.336;2022-09-30T12:07:41;100657.53;;;17.66;58.41
16595;BME280;8410;52.532;13.336;2022-09-30T12:10:17;100648.94;;;17.61;59.01
16595;BME280;8410;52.532;13.336;2022-09-30T12:12:46;100642.28;;;17.94;57.70
16595;BME280;8410;52.532;13.336;2022-09-30T12:15:17;100641.59;;;17.84;58.64
16595;BME280;8410;52.532;13.336;2022-09-30T12:17:48;100641.00;;;17.69;56.53
16595;BME280;8410;52.532;13.336;2022-09-30T12:20:21;100642.16;;;17.51;57.42
16595;BME280;8410;52.532;13.336;2022-09-30T12:22:53;100634.75;;;17.77;56.45
16595;BME280;8410;52.532;13.336;2022-09-30T12:25:25;100635.31;;;17.96;55.38
16595;BME280;8410;52.532;13.336;2022-09-30T12:27:59;100634.75;;;17.77;56.59
16595;BME280;8410;52.532;13.336;2022-09-30T12:30:54;100644.69;;;18.05;56.56
16595;BME280;8410;52.532;13.336;2022-09-30T12:33:39;100631.41;;;17.69;54.97
16595;BME280;8410;52.532;13.336;2022-09-30T12:36:31;100645.09;;;17.83;55.43
16595;BME280;8410;52.532;13.336;2022-09-30T12:42:29;100639.56;;;17.99;55.39
16595;BME280;8410;52.532;13.336;2022-09-30T12:45:15;100643.31;;;17.85;56.16
16595;BME280;8410;52.532;13.336;2022-09-30T12:47:48;100639.03;;;18.26;55.26
16595;BME280;8410;52.532;13.336;2022-09-30T12:50:18;100634.56;;;17.90;56.09
16595;BME280;8410;52.532;13.336;2022-09-30T12:52:48;100642.72;;;18.16;55.92
16595;BME280;8410;52.532;13.336;2022-09-30T12:55:21;100639.41;;;18.08;55.61
16595;BME280;8410;52.532;13.336;2022-09-30T12:57:51;100642.03;;;18.06;54.56
16595;BME280;8410;52.532;13.336;2022-09-30T13:00:21;100642.53;;;18.66;53.37
16595;BME280;8410;52.532;13.336;2022-09-30T13:02:53;100647.84;;;18.19;54.46
16595;BME280;8410;52.532;13.336;2022-09-30T13:05:56;100646.50;;;18.00;55.93
16595;BME280;8410;52.532;13.336;2022-09-30T13:08:47;100641.50;;;18.33;54.67
16595;BME280;8410;52.532;13.336;2022-09-30T13:11:32;100636.66;;;18.56;54.41
16595;BME280;8410;52.532;13.336;2022-09-30T13:14:13;100633.88;;;18.23;55.26
16595;BME280;8410;52.532;13.336;2022-09-30T13:20:01;100639.41;;;18.50;54.74
16595;BME280;8410;52.532;13.336;2022-09-30T13:22:41;100642.22;;;17.97;55.50
16595;BME280;8410;52.532;13.336;2022-09-30T13:25:14;100645.47;;;18.50;55.11